Time;durP1;ratioP1;P1;durP2;ratioP2;P2;SDS_P1;SDS_P2;PMS_P1;PMS_P2;Temp;Humidity;BMP_temperature;BMP_pressure;BME280_temperature;BME280_humidity;BME280_pressure;Samples;Min_cycle;Max_cycle;Signal;HPM_P1;HPM_P2
2022/06/30 00:01:41;;;;;;;15.70;14.37;;;21.50;99.90;;;;;;5125845;27;20428;-69
2022/06/30 00:04:07;;;;;;;16.20;15.00;;;21.50;99.90;;;;;;5115246;27;20480;-69
2022/06/30 00:06:32;;;;;;;16.30;15.10;;;21.40;99.90;;;;;;5129695;27;20240;-69
2022/06/30 00:08:58;;;;;;;16.30;15.10;;;21.40;99.90;;;;;;5133351;27;20340;-69
2022/06/30 00:11:24;;;;;;;16.40;14.80;;;21.40;99.90;;;;;;5132855;27;20182;-69
2022/06/30 00:13:50;;;;;;;14.90;13.80;;;21.40;99.90;;;;;;5131353;27;20178;-69
2022/06/30 00:16:16;;;;;;;17.27;15.87;;;21.40;99.90;;;;;;5132742;27;20175;-69
2022/06/30 00:18:41;;;;;;;16.20;14.80;;;21.30;99.90;;;;;;5128526;27;20183;-73
2022/06/30 00:21:09;;;;;;;16.07;14.87;;;21.30;99.90;;;;;;5132256;27;20242;-69
2022/06/30 00:23:35;;;;;;;16.47;15.17;;;21.30;99.90;;;;;;5133765;27;20175;-69
2022/06/30 00:26:02;;;;;;;16.67;15.37;;;21.20;99.90;;;;;;5125077;27;20457;-70
2022/06/30 00:28:28;;;;;;;16.90;15.60;;;21.20;99.90;;;;;;5092781;28;20890;-69
2022/06/30 00:30:54;;;;;;;16.10;14.90;;;21.20;99.90;;;;;;5091954;28;20448;-70
2022/06/30 00:33:20;;;;;;;16.37;15.07;;;21.10;99.90;;;;;;5111489;28;20182;-69
2022/06/30 00:35:46;;;;;;;17.57;15.87;;;21.10;99.90;;;;;;5112538;28;20410;-69
2022/06/30 00:38:12;;;;;;;17.60;16.07;;;21.10;99.90;;;;;;5112804;28;20167;-69
2022/06/30 00:40:40;;;;;;;17.37;15.80;;;21.10;99.90;;;;;;5113076;28;20478;-69
2022/06/30 00:43:06;;;;;;;17.50;16.00;;;21.10;99.90;;;;;;5114896;28;20412;-69
2022/06/30 00:45:32;;;;;;;17.37;15.87;;;21.10;99.90;;;;;;5130938;27;20450;-69
2022/06/30 00:48:01;;;;;;;18.13;16.73;;;21.00;99.90;;;;;;5101486;28;20172;-69
2022/06/30 00:50:27;;;;;;;18.20;16.73;;;21.00;99.90;;;;;;5092529;28;20459;-69
2022/06/30 00:52:55;;;;;;;17.80;16.30;;;21.00;99.90;;;;;;5112962;28;20424;-69
2022/06/30 00:55:22;;;;;;;18.90;17.00;;;21.00;99.90;;;;;;5132204;27;20457;-72
2022/06/30 00:57:49;;;;;;;18.47;16.77;;;21.00;99.90;;;;;;5130339;27;20416;-69
2022/06/30 01:00:15;;;;;;;17.93;16.53;;;20.90;99.90;;;;;;5113928;27;20544;-68
2022/06/30 01:02:44;;;;;;;18.40;16.80;;;20.90;99.90;;;;;;5114154;28;20888;-76
2022/06/30 01:05:09;;;;;;;17.37;16.07;;;20.90;99.90;;;;;;5116824;28;20744;-69
2022/06/30 01:07:35;;;;;;;18.27;16.77;;;20.90;99.90;;;;;;5116862;28;20401;-68
2022/06/30 01:12:47;;;;;;;17.90;16.40;;;20.90;99.90;;;;;;5122520;27;20497;-70
2022/06/30 01:15:18;;;;;;;18.90;17.40;;;20.80;99.90;;;;;;5134629;27;20420;-69
2022/06/30 01:17:48;;;;;;;17.87;16.27;;;20.80;99.90;;;;;;5103100;27;20837;-69
2022/06/30 01:20:15;;;;;;;19.87;18.10;;;20.80;99.90;;;;;;5136790;27;20464;-69
2022/06/30 01:22:41;;;;;;;19.63;18.00;;;20.70;99.90;;;;;;5122306;27;20508;-69
2022/06/30 01:25:11;;;;;;;20.10;18.33;;;20.70;99.90;;;;;;5119996;27;20421;-69
2022/06/30 01:27:37;;;;;;;19.77;17.97;;;20.70;99.90;;;;;;5130426;27;20479;-69
2022/06/30 01:30:03;;;;;;;20.03;17.97;;;20.70;99.90;;;;;;5104557;27;20515;-69
2022/06/30 01:32:30;;;;;;;17.50;16.00;;;20.70;99.90;;;;;;5116114;28;20460;-69
2022/06/30 01:34:59;;;;;;;18.70;17.20;;;20.70;99.90;;;;;;5115574;28;20496;-69
2022/06/30 01:37:26;;;;;;;17.90;16.40;;;20.60;99.90;;;;;;5116243;28;20797;-69
2022/06/30 01:39:52;;;;;;;17.50;16.00;;;20.60;99.90;;;;;;5130942;27;20468;-69
2022/06/30 01:42:18;;;;;;;19.80;17.97;;;20.60;99.90;;;;;;5133590;27;20503;-73
2022/06/30 01:44:43;;;;;;;18.60;17.10;;;20.60;99.90;;;;;;5131177;27;20171;-69
2022/06/30 01:47:10;;;;;;;18.70;16.90;;;20.60;99.90;;;;;;5115353;28;20414;-69
2022/06/30 01:49:37;;;;;;;18.33;16.70;;;20.50;99.90;;;;;;5115919;28;20194;-69
2022/06/30 01:52:03;;;;;;;16.80;15.40;;;20.50;99.90;;;;;;5114065;28;20450;-69
2022/06/30 01:54:29;;;;;;;18.43;16.50;;;20.50;99.90;;;;;;5116175;28;20417;-69
2022/06/30 01:56:55;;;;;;;19.90;18.10;;;20.50;99.90;;;;;;5115041;27;20402;-69
2022/06/30 01:59:20;;;;;;;19.13;17.40;;;20.40;99.90;;;;;;5114436;28;20453;-69
2022/06/30 02:01:46;;;;;;;19.50;17.70;;;20.40;99.90;;;;;;5114601;28;20176;-69
2022/06/30 02:06:56;;;;;;;17.97;16.10;;;20.40;99.90;;;;;;5114904;28;20798;-69
2022/06/30 02:09:22;;;;;;;19.67;17.90;;;20.40;99.90;;;;;;5114422;28;20471;-69
2022/06/30 02:11:48;;;;;;;18.97;17.27;;;20.40;99.90;;;;;;5112986;28;20179;-77
2022/06/30 02:14:13;;;;;;;19.50;17.73;;;20.30;99.90;;;;;;5114823;28;20645;-69
2022/06/30 02:16:39;;;;;;;18.67;16.77;;;20.30;99.90;;;;;;5115528;28;20175;-69
2022/06/30 02:19:05;;;;;;;19.67;17.97;;;20.30;99.90;;;;;;5113370;28;20184;-69
2022/06/30 02:21:31;;;;;;;19.60;17.90;;;20.20;99.90;;;;;;5126344;27;20693;-69
2022/06/30 02:23:56;;;;;;;20.17;18.47;;;20.20;99.90;;;;;;5133276;27;20199;-69
2022/06/30 02:26:22;;;;;;;20.10;18.30;;;20.20;99.90;;;;;;5117937;27;20186;-68
2022/06/30 02:28:48;;;;;;;19.90;18.07;;;20.20;99.90;;;;;;5115087;27;20624;-68
2022/06/30 02:31:14;;;;;;;19.87;18.10;;;20.20;99.90;;;;;;5114993;27;20167;-69
2022/06/30 02:33:40;;;;;;;21.40;19.50;;;20.10;99.90;;;;;;5115265;28;20224;-69
2022/06/30 02:36:06;;;;;;;19.77;18.07;;;20.10;99.90;;;;;;5115106;27;20167;-69
2022/06/30 02:38:32;;;;;;;20.77;18.87;;;20.10;99.90;;;;;;5115104;28;20458;-69
2022/06/30 02:40:58;;;;;;;20.43;18.73;;;20.00;99.90;;;;;;5113172;27;20450;-69
2022/06/30 02:43:24;;;;;;;19.90;18.07;;;20.00;99.90;;;;;;5118123;27;20433;-69
2022/06/30 02:45:50;;;;;;;19.57;17.87;;;20.00;99.90;;;;;;5116037;27;20626;-75
2022/06/30 02:48:16;;;;;;;18.33;16.87;;;20.00;99.90;;;;;;5135289;27;20178;-69
2022/06/30 02:50:44;;;;;;;18.57;16.97;;;20.00;99.90;;;;;;5129006;27;20426;-69
2022/06/30 02:53:11;;;;;;;19.00;17.20;;;20.00;99.90;;;;;;5123297;27;20768;-69
2022/06/30 02:55:37;;;;;;;20.40;18.33;;;20.00;99.90;;;;;;5117337;27;20421;-69
2022/06/30 02:58:03;;;;;;;17.07;15.60;;;20.00;99.90;;;;;;5113860;27;20960;-69
2022/06/30 03:00:31;;;;;;;18.63;17.03;;;20.00;99.90;;;;;;5120635;27;20543;-69
2022/06/30 03:03:00;;;;;;;20.23;18.53;;;20.00;99.90;;;;;;5115937;27;20635;-69
2022/06/30 03:05:26;;;;;;;20.07;18.47;;;20.00;99.90;;;;;;5131833;27;20433;-69
2022/06/30 03:07:51;;;;;;;20.27;18.57;;;19.90;99.90;;;;;;5123591;27;20794;-71
2022/06/30 03:10:17;;;;;;;19.77;18.13;;;19.90;99.90;;;;;;5125481;27;20184;-70
2022/06/30 03:12:43;;;;;;;19.90;17.87;;;19.90;99.90;;;;;;5117436;27;20540;-69
2022/06/30 03:15:09;;;;;;;19.77;17.90;;;19.90;99.90;;;;;;5111026;27;20180;-69
2022/06/30 03:17:35;;;;;;;18.57;16.93;;;19.90;99.90;;;;;;5110317;28;20179;-69
2022/06/30 03:20:00;;;;;;;19.80;18.00;;;19.90;99.90;;;;;;5118377;27;20464;-70
2022/06/30 03:22:26;;;;;;;19.17;17.37;;;19.90;99.90;;;;;;5132960;27;20703;-69
2022/06/30 03:24:52;;;;;;;20.27;18.67;;;19.80;99.90;;;;;;5133266;27;20183;-72
2022/06/30 03:27:18;;;;;;;21.67;19.77;;;19.80;99.90;;;;;;5132551;27;20179;-69
2022/06/30 03:29:44;;;;;;;20.87;18.97;;;19.80;99.90;;;;;;5122084;27;20212;-70
2022/06/30 03:32:09;;;;;;;20.90;19.00;;;19.80;99.90;;;;;;5110744;27;20410;-70
2022/06/30 03:34:35;;;;;;;20.67;18.97;;;19.80;99.90;;;;;;5128376;27;20187;-69
2022/06/30 03:37:01;;;;;;;19.07;17.40;;;19.80;99.90;;;;;;5118730;27;20175;-69
2022/06/30 03:39:27;;;;;;;22.13;19.90;;;19.80;99.90;;;;;;5113722;28;20203;-69
2022/06/30 03:41:53;;;;;;;20.53;18.73;;;19.80;99.90;;;;;;5110361;28;20259;-69
2022/06/30 03:44:18;;;;;;;21.90;19.83;;;19.80;99.90;;;;;;5113780;27;20425;-68
2022/06/30 03:46:44;;;;;;;20.47;18.57;;;19.80;99.90;;;;;;5113783;28;20562;-68
2022/06/30 03:49:10;;;;;;;20.80;18.90;;;19.80;99.90;;;;;;5112674;28;20172;-69
2022/06/30 03:51:35;;;;;;;21.93;20.10;;;19.80;99.90;;;;;;5113490;28;20556;-68
2022/06/30 03:54:01;;;;;;;22.43;20.23;;;19.80;99.90;;;;;;5112738;28;20225;-69
2022/06/30 03:56:27;;;;;;;23.20;21.00;;;19.80;99.90;;;;;;5115578;27;20171;-69
2022/06/30 03:58:53;;;;;;;21.57;19.57;;;19.80;99.90;;;;;;5113467;28;20182;-69
2022/06/30 04:01:19;;;;;;;23.00;20.87;;;19.80;99.90;;;;;;5111642;28;20214;-69
2022/06/30 04:03:44;;;;;;;22.43;20.27;;;19.70;99.90;;;;;;5113466;28;20175;-69
2022/06/30 04:06:10;;;;;;;21.97;19.77;;;19.70;99.90;;;;;;5112767;28;20412;-69
2022/06/30 04:08:36;;;;;;;22.77;20.60;;;19.80;99.90;;;;;;5095056;28;20586;-69
2022/06/30 04:11:01;;;;;;;22.33;20.27;;;19.80;99.90;;;;;;5110291;28;20659;-69
2022/06/30 04:13:27;;;;;;;21.37;19.50;;;19.80;99.90;;;;;;5113033;28;20188;-69
2022/06/30 04:15:55;;;;;;;19.90;18.20;;;19.80;99.90;;;;;;5111923;28;20540;-69
2022/06/30 04:18:20;;;;;;;22.33;20.13;;;19.80;99.90;;;;;;5112952;28;20168;-69
2022/06/30 04:20:46;;;;;;;22.17;20.07;;;19.80;99.90;;;;;;5112889;28;20484;-69
2022/06/30 04:23:12;;;;;;;21.77;19.73;;;19.80;99.90;;;;;;5112478;28;20176;-69
2022/06/30 04:25:38;;;;;;;22.30;20.40;;;19.80;99.90;;;;;;5126390;27;20185;-69
2022/06/30 04:28:05;;;;;;;22.27;20.27;;;19.90;99.90;;;;;;5117035;27;20184;-69
2022/06/30 04:33:18;;;;;;;22.30;20.47;;;19.90;99.90;;;;;;5130093;28;20413;-69
2022/06/30 04:35:44;;;;;;;23.17;20.80;;;19.90;99.90;;;;;;5129917;27;20997;-69
2022/06/30 04:38:09;;;;;;;25.03;22.60;;;19.90;99.90;;;;;;5134529;27;20178;-69
2022/06/30 04:43:19;;;;;;;22.17;20.13;;;20.00;99.90;;;;;;5123127;27;20197;-69
2022/06/30 04:45:45;;;;;;;20.80;18.83;;;20.00;99.90;;;;;;5121263;27;20433;-69
2022/06/30 04:48:11;;;;;;;23.80;21.70;;;20.00;99.90;;;;;;5112494;27;20655;-69
2022/06/30 04:50:38;;;;;;;22.30;20.20;;;20.00;99.90;;;;;;5133798;27;20193;-69
2022/06/30 04:53:04;;;;;;;24.47;22.00;;;20.10;99.90;;;;;;5136415;27;20436;-69
2022/06/30 04:55:29;;;;;;;24.97;22.77;;;20.10;99.90;;;;;;5124069;27;20469;-69
2022/06/30 04:57:55;;;;;;;24.30;21.87;;;20.20;99.90;;;;;;5127661;27;20175;-69
2022/06/30 05:00:21;;;;;;;24.63;22.40;;;20.20;99.90;;;;;;5125277;27;20214;-70
2022/06/30 05:02:47;;;;;;;22.97;20.83;;;20.20;99.90;;;;;;5132032;27;20277;-69
2022/06/30 05:05:13;;;;;;;30.60;27.50;;;20.30;99.90;;;;;;5130529;27;20644;-69
2022/06/30 05:07:38;;;;;;;28.87;26.00;;;20.30;99.90;;;;;;5112590;27;20199;-68
2022/06/30 05:10:04;;;;;;;25.43;23.03;;;20.40;99.90;;;;;;5110184;27;20258;-72
2022/06/30 05:12:31;;;;;;;23.27;21.27;;;20.30;99.90;;;;;;5114127;27;20210;-68
2022/06/30 05:14:56;;;;;;;22.93;20.83;;;20.30;99.90;;;;;;5112526;27;20915;-68
2022/06/30 05:17:22;;;;;;;22.50;20.50;;;20.40;99.90;;;;;;5109529;27;20542;-67
2022/06/30 05:19:48;;;;;;;22.13;20.23;;;20.50;99.90;;;;;;5127371;27;20211;-71
2022/06/30 05:22:13;;;;;;;22.10;20.20;;;20.60;99.90;;;;;;5135393;27;20214;-68
2022/06/30 05:27:23;;;;;;;22.80;20.60;;;20.90;99.90;;;;;;5126786;27;20194;-67
2022/06/30 05:29:49;;;;;;;20.57;18.87;;;21.10;99.90;;;;;;5126294;27;20833;-67
2022/06/30 05:32:15;;;;;;;21.50;19.50;;;21.20;99.90;;;;;;5115847;27;20176;-68
2022/06/30 05:34:40;;;;;;;20.57;18.77;;;21.40;99.90;;;;;;5114614;27;20222;-67
2022/06/30 05:37:06;;;;;;;21.47;19.20;;;21.50;99.90;;;;;;5135308;27;20175;-68
2022/06/30 05:39:32;;;;;;;20.80;19.10;;;21.70;99.90;;;;;;5128975;27;20273;-68
2022/06/30 05:42:00;;;;;;;20.00;18.27;;;21.80;99.90;;;;;;5103071;28;20184;-67
2022/06/30 05:44:27;;;;;;;20.90;19.10;;;21.90;99.90;;;;;;5131139;27;20521;-67
2022/06/30 05:46:55;;;;;;;20.17;18.27;;;22.10;99.90;;;;;;5095537;28;20498;-67
2022/06/30 05:49:25;;;;;;;21.10;18.90;;;22.20;99.90;;;;;;5104718;27;20465;-69
2022/06/30 05:51:52;;;;;;;19.60;17.90;;;22.30;99.90;;;;;;5131377;27;20430;-68
2022/06/30 05:54:17;;;;;;;20.67;18.97;;;22.40;99.90;;;;;;5131448;27;20470;-67
2022/06/30 05:56:43;;;;;;;20.10;18.40;;;22.50;99.90;;;;;;5136435;27;20447;-68
2022/06/30 05:59:09;;;;;;;20.37;18.67;;;22.60;99.90;;;;;;5135704;27;20171;-68
2022/06/30 06:01:35;;;;;;;21.20;19.30;;;22.70;99.90;;;;;;5115861;27;20959;-69
2022/06/30 06:04:02;;;;;;;21.30;19.40;;;22.70;99.90;;;;;;5113361;28;20433;-72
2022/06/30 06:06:28;;;;;;;22.77;20.60;;;22.80;99.90;;;;;;5113258;28;20955;-66
2022/06/30 06:08:54;;;;;;;24.67;22.53;;;22.80;99.90;;;;;;5114568;27;20753;-67
2022/06/30 06:11:22;;;;;;;21.40;19.50;;;22.80;99.90;;;;;;5134224;27;20435;-67
2022/06/30 06:13:47;;;;;;;22.57;20.50;;;22.80;99.90;;;;;;5136116;27;20233;-67
2022/06/30 06:16:13;;;;;;;24.13;21.70;;;22.80;99.90;;;;;;5135512;27;20408;-67
2022/06/30 06:18:39;;;;;;;22.43;20.50;;;22.80;99.90;;;;;;5135575;27;20175;-67
2022/06/30 06:21:04;;;;;;;21.40;19.23;;;22.80;99.90;;;;;;5135216;27;20230;-68
2022/06/30 06:23:30;;;;;;;23.87;21.80;;;22.80;99.90;;;;;;5135689;27;20626;-67
2022/06/30 06:25:56;;;;;;;26.23;23.57;;;22.80;99.90;;;;;;5105987;27;20189;-67
2022/06/30 06:31:07;;;;;;;22.60;20.53;;;22.80;99.90;;;;;;5113419;28;20176;-68
2022/06/30 06:33:33;;;;;;;24.53;22.17;;;22.80;99.90;;;;;;5112786;28;20786;-67
2022/06/30 06:35:59;;;;;;;26.00;23.50;;;22.90;99.90;;;;;;5115013;27;20422;-67
2022/06/30 06:38:25;;;;;;;25.43;22.73;;;22.90;99.90;;;;;;5115706;27;20429;-66
2022/06/30 06:40:50;;;;;;;25.67;23.37;;;22.90;99.90;;;;;;5104725;27;20837;-66
2022/06/30 06:43:16;;;;;;;24.67;22.37;;;23.00;99.90;;;;;;5113818;27;20187;-67
2022/06/30 06:45:42;;;;;;;23.40;21.20;;;23.00;99.90;;;;;;5127629;27;20180;-66
2022/06/30 06:48:07;;;;;;;22.70;20.53;;;23.10;99.90;;;;;;5122091;27;20183;-73
2022/06/30 06:50:33;;;;;;;22.00;20.10;;;23.10;99.90;;;;;;5134348;27;20641;-66
2022/06/30 06:52:59;;;;;;;24.53;22.33;;;23.10;99.90;;;;;;5127720;27;20258;-67
2022/06/30 06:55:25;;;;;;;23.90;21.53;;;23.20;99.90;;;;;;5112050;27;20222;-65
2022/06/30 06:57:50;;;;;;;23.57;21.37;;;23.30;99.90;;;;;;5122237;27;20265;-65
2022/06/30 07:00:17;;;;;;;21.00;19.20;;;23.30;99.90;;;;;;5134004;27;20738;-65
2022/06/30 07:02:43;;;;;;;20.87;18.77;;;23.40;99.90;;;;;;5126623;27;20178;-66
2022/06/30 07:05:10;;;;;;;21.23;19.53;;;23.50;99.90;;;;;;5105362;27;20517;-65
2022/06/30 07:07:37;;;;;;;20.37;18.60;;;23.60;99.90;;;;;;5114464;28;20442;-66
2022/06/30 07:10:05;;;;;;;21.20;19.37;;;23.70;99.90;;;;;;5114467;28;20505;-65
2022/06/30 07:12:32;;;;;;;22.17;18.60;;;23.70;99.90;;;;;;5110933;28;20495;-65
2022/06/30 07:14:58;;;;;;;18.23;16.60;;;23.80;99.90;;;;;;5114491;28;20410;-65
2022/06/30 07:17:26;;;;;;;19.47;17.70;;;24.00;99.90;;;;;;5101826;28;20462;-66
2022/06/30 07:19:52;;;;;;;19.90;18.00;;;24.10;99.90;;;;;;5132323;27;20463;-66
2022/06/30 07:22:18;;;;;;;19.30;17.60;;;24.30;99.90;;;;;;5128377;27;20928;-66
2022/06/30 07:24:44;;;;;;;18.43;16.87;;;24.40;99.90;;;;;;5104018;28;20212;-66
2022/06/30 07:27:09;;;;;;;17.30;15.90;;;24.50;99.90;;;;;;5108973;27;20175;-66
2022/06/30 07:29:35;;;;;;;18.50;16.80;;;24.60;99.90;;;;;;5116522;27;20500;-66
2022/06/30 07:32:01;;;;;;;15.70;14.50;;;24.70;99.90;;;;;;5120592;27;20623;-66
2022/06/30 07:34:27;;;;;;;15.03;13.93;;;24.90;99.90;;;;;;5113077;27;20220;-66
2022/06/30 07:36:52;;;;;;;16.87;15.47;;;24.90;99.90;;;;;;5113818;28;20270;-66
2022/06/30 07:39:19;;;;;;;14.83;13.63;;;25.10;99.90;;;;;;5114129;27;20186;-66
2022/06/30 07:41:45;;;;;;;13.80;12.60;;;25.20;99.90;;;;;;5133063;27;20269;-66
2022/06/30 07:44:10;;;;;;;14.80;13.50;;;25.30;99.90;;;;;;5129331;27;20504;-66
2022/06/30 07:46:36;;;;;;;13.80;12.57;;;25.50;99.90;;;;;;5126163;27;20259;-66
2022/06/30 07:49:02;;;;;;;12.07;11.27;;;25.70;99.90;;;;;;5113527;27;20441;-66
2022/06/30 07:51:28;;;;;;;13.07;12.10;;;25.80;99.30;;;;;;5125894;27;20250;-66
2022/06/30 07:53:53;;;;;;;13.40;12.30;;;25.90;98.50;;;;;;5128039;27;20174;-66
2022/06/30 07:56:19;;;;;;;12.50;11.60;;;26.00;98.30;;;;;;5130515;27;20184;-66
2022/06/30 07:58:45;;;;;;;11.33;10.50;;;26.20;98.80;;;;;;5100781;27;20697;-66
2022/06/30 08:01:11;;;;;;;12.03;11.13;;;26.30;97.40;;;;;;5126986;27;20237;-72
2022/06/30 08:03:36;;;;;;;13.07;11.97;;;26.50;97.60;;;;;;5109488;27;20598;-67
2022/06/30 08:06:02;;;;;;;11.07;10.37;;;26.70;97.30;;;;;;5093006;28;20172;-66
2022/06/30 08:08:29;;;;;;;10.40;9.60;;;26.80;96.70;;;;;;5092415;28;20212;-66
2022/06/30 08:10:54;;;;;;;11.00;10.20;;;26.90;95.60;;;;;;5092019;28;20418;-66
2022/06/30 08:13:20;;;;;;;9.07;8.33;;;26.90;95.50;;;;;;5092230;28;20407;-66
2022/06/30 08:15:46;;;;;;;9.03;8.37;;;27.10;94.10;;;;;;5093391;28;20176;-66
2022/06/30 08:18:12;;;;;;;9.57;8.70;;;27.10;93.10;;;;;;5099370;28;20589;-67
2022/06/30 08:20:38;;;;;;;9.53;8.93;;;27.30;92.70;;;;;;5111541;28;20461;-66
2022/06/30 08:23:04;;;;;;;9.20;8.40;;;27.40;93.20;;;;;;5113015;28;20616;-66
2022/06/30 08:25:30;;;;;;;10.40;9.50;;;27.50;91.60;;;;;;5111486;28;20424;-66
2022/06/30 08:27:59;;;;;;;8.20;7.67;;;27.60;91.60;;;;;;5113273;28;20409;-66
2022/06/30 08:30:25;;;;;;;8.30;7.60;;;27.70;91.40;;;;;;5112543;28;20182;-66
2022/06/30 08:32:50;;;;;;;8.30;7.70;;;27.80;90.70;;;;;;5111251;28;20433;-67
2022/06/30 08:35:16;;;;;;;9.43;8.70;;;27.90;90.80;;;;;;5112500;28;20182;-67
2022/06/30 08:37:45;;;;;;;7.47;7.00;;;28.00;89.60;;;;;;5111112;28;20175;-66
2022/06/30 08:42:57;;;;;;;8.83;8.33;;;28.20;88.70;;;;;;5113147;28;20480;-66
2022/06/30 08:45:24;;;;;;;7.77;7.10;;;28.30;88.70;;;;;;5112393;28;20406;-66
2022/06/30 08:47:50;;;;;;;7.63;6.97;;;28.40;87.20;;;;;;5112569;28;20448;-66
2022/06/30 08:50:17;;;;;;;8.57;7.90;;;28.40;86.70;;;;;;5112392;28;20449;-67
2022/06/30 08:52:54;;;;;;;8.00;7.60;;;28.50;87.20;;;;;;5109373;28;20199;-66
2022/06/30 08:55:28;;;;;;;8.10;7.50;;;28.60;86.90;;;;;;5107605;28;20462;-67
2022/06/30 08:57:57;;;;;;;7.20;6.80;;;28.70;85.30;;;;;;5111345;28;20421;-66
2022/06/30 09:00:23;;;;;;;8.63;8.03;;;28.80;83.30;;;;;;5110225;28;20465;-66
2022/06/30 09:02:49;;;;;;;7.97;7.40;;;28.80;83.70;;;;;;5112910;28;20466;-66
2022/06/30 09:05:16;;;;;;;7.43;7.00;;;29.00;83.20;;;;;;5112192;28;20416;-67
2022/06/30 09:07:42;;;;;;;8.37;7.77;;;29.00;81.40;;;;;;5112661;28;20197;-66
2022/06/30 09:10:08;;;;;;;8.00;7.40;;;29.00;80.60;;;;;;5112737;28;20409;-66
2022/06/30 09:12:34;;;;;;;7.37;6.93;;;29.10;80.80;;;;;;5110945;28;20444;-66
2022/06/30 09:15:00;;;;;;;8.50;7.90;;;29.20;78.60;;;;;;5111682;28;20894;-67
2022/06/30 09:17:29;;;;;;;6.60;6.20;;;29.30;77.10;;;;;;5112270;28;20546;-67
2022/06/30 09:20:00;;;;;;;7.97;7.43;;;29.30;76.40;;;;;;5112385;28;20460;-66
2022/06/30 09:22:37;;;;;;;7.20;6.70;;;29.50;78.10;;;;;;5113241;28;20453;-66
2022/06/30 09:25:08;;;;;;;7.37;6.97;;;29.60;77.90;;;;;;5116575;28;20416;-68
2022/06/30 09:27:39;;;;;;;8.40;7.90;;;29.70;77.90;;;;;;5115593;28;20410;-66
2022/06/30 09:30:15;;;;;;;8.03;7.63;;;29.80;76.50;;;;;;5113229;28;20429;-66
2022/06/30 09:32:45;;;;;;;9.07;8.37;;;29.90;77.80;;;;;;5115812;28;20516;-66
2022/06/30 09:35:11;;;;;;;7.77;7.27;;;30.00;77.40;;;;;;5116571;28;20417;-66
2022/06/30 09:37:38;;;;;;;8.60;8.10;;;29.90;75.70;;;;;;5115643;28;20519;-66
2022/06/30 09:40:08;;;;;;;9.50;8.90;;;29.90;75.90;;;;;;5116172;28;20484;-67
2022/06/30 09:42:45;;;;;;;8.37;7.80;;;29.90;77.10;;;;;;5115645;28;20401;-66
2022/06/30 09:45:14;;;;;;;9.93;8.90;;;29.90;77.60;;;;;;5116145;28;20459;-66
2022/06/30 09:47:54;;;;;;;8.53;8.00;;;29.80;76.00;;;;;;5115853;28;20437;-66
2022/06/30 09:50:21;;;;;;;8.10;7.50;;;29.70;76.70;;;;;;5115489;28;20412;-66
2022/06/30 09:53:08;;;;;;;9.50;8.70;;;29.50;77.00;;;;;;5115757;28;20968;-65
2022/06/30 09:56:13;;;;;;;9.23;8.53;;;29.40;79.30;;;;;;5115391;28;20788;-66
2022/06/30 09:58:43;;;;;;;8.27;7.67;;;29.30;78.70;;;;;;5062522;28;20803;-66
2022/06/30 10:01:10;;;;;;;8.40;7.70;;;29.30;79.30;;;;;;5112951;28;20462;-66
2022/06/30 10:03:59;;;;;;;8.83;8.30;;;29.30;78.60;;;;;;5113978;28;20704;-66
2022/06/30 10:06:25;;;;;;;8.10;7.37;;;29.40;79.10;;;;;;5115275;28;20406;-68
2022/06/30 10:08:56;;;;;;;8.30;7.70;;;29.30;77.50;;;;;;5115672;28;20417;-66
2022/06/30 10:11:22;;;;;;;7.23;6.73;;;29.20;76.40;;;;;;5115089;28;20484;-66
2022/06/30 10:13:49;;;;;;;7.20;6.60;;;29.10;76.70;;;;;;5062563;28;20417;-66
2022/06/30 10:16:17;;;;;;;6.77;6.40;;;29.00;77.00;;;;;;5115257;28;20408;-66
2022/06/30 10:18:43;;;;;;;7.50;7.10;;;28.90;79.00;;;;;;5115752;28;20415;-66
2022/06/30 10:21:08;;;;;;;7.60;7.00;;;29.00;81.20;;;;;;5115075;28;20476;-65
2022/06/30 10:23:35;;;;;;;6.50;6.10;;;28.90;76.30;;;;;;5112772;28;20474;-66
2022/06/30 10:26:02;;;;;;;6.20;5.90;;;28.90;75.10;;;;;;5115348;28;20538;-67
2022/06/30 10:28:29;;;;;;;6.53;5.97;;;28.90;76.60;;;;;;5094567;28;20441;-66
2022/06/30 10:31:10;;;;;;;6.53;6.03;;;28.80;75.10;;;;;;5113076;28;20920;-66
2022/06/30 10:34:08;;;;;;;6.20;5.80;;;28.80;74.30;;;;;;5114034;28;20481;-66
2022/06/30 10:36:59;;;;;;;6.87;6.20;;;29.00;76.90;;;;;;5113098;28;20414;-66
2022/06/30 10:39:33;;;;;;;6.63;6.23;;;29.20;76.10;;;;;;5113206;28;20471;-66
2022/06/30 10:41:58;;;;;;;7.13;6.53;;;29.50;74.90;;;;;;5115224;28;20744;-66
2022/06/30 10:44:27;;;;;;;7.17;6.47;;;29.70;75.60;;;;;;5114417;28;20555;-66
2022/06/30 10:46:55;;;;;;;6.10;5.80;;;29.70;65.90;;;;;;5113542;28;20175;-67
2022/06/30 10:49:22;;;;;;;7.37;6.87;;;29.60;66.10;;;;;;5113861;28;20414;-67
2022/06/30 10:51:48;;;;;;;8.40;8.00;;;29.50;67.10;;;;;;5114540;28;20602;-66
2022/06/30 10:54:31;;;;;;;7.73;7.17;;;29.50;71.40;;;;;;5114727;28;20462;-66
2022/06/30 10:56:59;;;;;;;6.83;6.33;;;29.50;72.30;;;;;;5113419;28;20417;-67
2022/06/30 10:59:30;;;;;;;7.10;6.60;;;29.50;71.50;;;;;;5112022;28;20425;-66
2022/06/30 11:02:10;;;;;;;7.40;6.67;;;29.50;73.10;;;;;;5113485;28;20421;-67
2022/06/30 11:04:40;;;;;;;6.50;6.10;;;29.60;72.30;;;;;;5113683;28;20512;-66
2022/06/30 11:07:32;;;;;;;6.50;6.10;;;29.70;74.30;;;;;;5114600;28;20421;-66
2022/06/30 11:09:58;;;;;;;7.40;6.80;;;29.90;75.10;;;;;;5111189;27;20433;-66
2022/06/30 11:12:31;;;;;;;6.73;6.30;;;30.00;72.10;;;;;;5078324;28;20414;-67
2022/06/30 11:14:58;;;;;;;7.03;6.50;;;30.00;68.70;;;;;;5114473;28;20450;-67
2022/06/30 11:17:27;;;;;;;6.27;5.97;;;30.00;68.10;;;;;;5078506;28;20419;-67
2022/06/30 11:20:19;;;;;;;6.60;6.10;;;30.00;70.00;;;;;;5113026;28;20469;-67
2022/06/30 11:22:47;;;;;;;6.60;6.20;;;29.90;71.60;;;;;;5109195;28;20523;-67
2022/06/30 11:27:17;;;;;;;6.90;6.40;;;29.90;70.90;;;;;;5112883;28;20429;-67
2022/06/30 11:28:06;;;;;;;6.47;6.07;;;30.00;70.00;;;;;;5113816;28;20425;-67
2022/06/30 11:30:34;;;;;;;7.63;7.23;;;30.10;69.40;;;;;;5112554;28;20437;-66
2022/06/30 11:33:00;;;;;;;8.10;7.50;;;30.30;69.40;;;;;;5112855;28;20412;-66
2022/06/30 11:35:27;;;;;;;7.07;6.77;;;30.40;71.00;;;;;;5113445;28;20402;-67
2022/06/30 11:37:53;;;;;;;6.37;5.90;;;30.70;68.40;;;;;;5114193;28;20500;-66
2022/06/30 11:40:19;;;;;;;6.93;6.33;;;30.70;65.00;;;;;;5112320;28;20932;-66
2022/06/30 11:42:45;;;;;;;6.57;6.17;;;30.60;60.50;;;;;;5113220;28;20442;-66
2022/06/30 11:45:17;;;;;;;7.70;7.20;;;30.60;65.00;;;;;;5113697;28;20201;-65
2022/06/30 11:47:49;;;;;;;6.87;6.47;;;30.60;64.70;;;;;;5112747;28;20183;-66
2022/06/30 11:50:20;;;;;;;6.03;5.73;;;30.50;65.70;;;;;;5112623;28;20397;-67
2022/06/30 11:52:46;;;;;;;6.40;5.97;;;30.30;65.30;;;;;;5113050;28;20791;-66
2022/06/30 11:55:12;;;;;;;5.40;5.10;;;30.30;68.10;;;;;;5112313;28;20905;-66
2022/06/30 11:57:41;;;;;;;6.60;6.10;;;30.40;66.90;;;;;;5109626;28;20547;-66
2022/06/30 12:00:09;;;;;;;6.33;5.83;;;30.30;65.00;;;;;;5112137;28;20967;-67
2022/06/30 12:02:37;;;;;;;5.90;5.50;;;30.20;64.60;;;;;;5111625;28;20433;-66
2022/06/30 12:05:07;;;;;;;7.07;6.40;;;30.10;65.00;;;;;;5113591;28;20500;-66
2022/06/30 12:07:34;;;;;;;6.83;6.33;;;30.10;69.60;;;;;;5111569;28;20422;-66
2022/06/30 12:10:01;;;;;;;6.60;5.60;;;30.20;69.50;;;;;;5109978;28;20937;-66
2022/06/30 12:12:28;;;;;;;6.20;5.80;;;30.20;67.00;;;;;;5112012;28;20516;-66
2022/06/30 12:14:59;;;;;;;5.93;5.53;;;30.00;66.40;;;;;;5113371;28;20412;-66
2022/06/30 12:17:31;;;;;;;6.10;5.70;;;29.90;65.10;;;;;;5112581;28;20787;-66
2022/06/30 12:19:56;;;;;;;7.17;6.77;;;29.90;68.70;;;;;;5112950;28;20483;-66
2022/06/30 12:22:22;;;;;;;7.30;6.80;;;29.80;68.40;;;;;;5113260;28;20857;-66
2022/06/30 12:24:49;;;;;;;7.07;6.57;;;29.80;66.10;;;;;;5112604;28;20176;-66
2022/06/30 12:27:37;;;;;;;7.03;6.50;;;29.70;64.30;;;;;;5112915;28;20175;-66
2022/06/30 12:30:07;;;;;;;6.70;6.33;;;29.50;59.90;;;;;;5113333;28;20454;-66
2022/06/30 12:32:33;;;;;;;7.30;6.80;;;29.40;60.40;;;;;;5112193;28;20923;-66
2022/06/30 12:35:04;;;;;;;6.50;5.90;;;29.40;64.00;;;;;;5113079;28;20401;-66
2022/06/30 12:37:36;;;;;;;7.47;6.90;;;29.50;65.00;;;;;;5112527;28;20168;-67
2022/06/30 12:40:21;;;;;;;8.30;7.70;;;29.50;68.70;;;;;;5111052;28;20465;-66
2022/06/30 12:42:56;;;;;;;6.67;6.07;;;29.60;67.60;;;;;;5108981;28;20430;-66
2022/06/30 12:45:49;;;;;;;6.10;5.70;;;29.50;61.80;;;;;;5107055;28;20494;-69
2022/06/30 12:48:40;;;;;;;6.10;5.70;;;29.50;63.90;;;;;;5092823;28;20433;-66
2022/06/30 12:51:06;;;;;;;7.00;5.97;;;29.60;63.80;;;;;;5092621;28;20452;-67
2022/06/30 12:53:32;;;;;;;7.43;6.93;;;29.60;63.20;;;;;;5098798;28;20507;-66
2022/06/30 12:56:13;;;;;;;6.47;6.07;;;29.70;64.40;;;;;;5112991;28;20417;-65